CMA CGM Corneille — A8SU4 — position and weather

sailwx.info

Track history (hours):
 
Tides and Currents Weather Stations Pressure Air Temp Water Temp Dewpoint Dewpoint Depression Visibility Wind Speed Wind Dir Waves Ship Positions

CMA CGM Corneille

Last reported at 2018-Jun-21 09:18 UTC. Time now 2018-Jun-22 18:59 UTC.
Position N 01°20' E 103°17'.

Length 299 m; draft 12.4 m.

Type: Ship (hazmat cat A). MMSI: 636017425.

Date/timePositionNaut miles runAvg speedWind from/ knotsBaromVisibWave heightAir tempDewpointWater temp
2018-Jun-21 09:18N 01°20' E 103°17'718.6
2018-Jun-21 08:55N 01°16' E 103°23'818.5
2018-Jun-21 08:30N 01°13' E 103°30'714.8
2018-Jun-21 08:01N 01°12' E 103°37'4 7.7
2018-Jun-21 07:31N 01°13' E 103°41'510.7
2018-Jun-21 07:00N 01°16' E 103°46'1 2.7
2018-Jun-21 06:30N 01°15' E 103°47'0 0.0
2018-Jun-21 05:58N 01°15' E 103°47'0 0.0
2018-Jun-21 05:30N 01°15' E 103°47'0 0.0
2018-Jun-21 04:58N 01°15' E 103°47'0 0.0
2018-Jun-21 04:28N 01°15' E 103°47'0 0.0
2018-Jun-21 03:55N 01°15' E 103°47'0 0.0
2018-Jun-21 03:30N 01°15' E 103°47'0 0.0
2018-Jun-21 03:00N 01°15' E 103°47'0 0.0
2018-Jun-21 02:28N 01°15' E 103°47'0 0.0
2018-Jun-21 01:58N 01°15' E 103°47'0 0.0
2018-Jun-21 01:30N 01°15' E 103°47'0 0.0
2018-Jun-21 00:57N 01°15' E 103°47'0 0.0
2018-Jun-21 00:30N 01°15' E 103°47'0 0.0
2018-Jun-20 23:55N 01°15' E 103°47'0 0.0
2018-Jun-20 23:30N 01°15' E 103°47'0 0.0
2018-Jun-20 22:59N 01°15' E 103°47'0 0.0
2018-Jun-20 22:29N 01°15' E 103°47'0 0.0
2018-Jun-20 22:00N 01°15' E 103°47'0 0.0
2018-Jun-20 21:30N 01°15' E 103°47'0 0.0
2018-Jun-20 20:58N 01°15' E 103°47'0 0.0
2018-Jun-20 20:30N 01°15' E 103°47'0 0.0
2018-Jun-20 20:00N 01°15' E 103°47'0 0.0
2018-Jun-20 19:28N 01°15' E 103°47'0 0.0
2018-Jun-20 18:57N 01°15' E 103°47'0 0.0
2018-Jun-20 18:30N 01°15' E 103°47'0 0.0
2018-Jun-20 17:58N 01°15' E 103°47'0 0.0
2018-Jun-20 17:30N 01°15' E 103°47'0 0.0
2018-Jun-20 17:00N 01°15' E 103°47'0 0.0
2018-Jun-20 16:30N 01°15' E 103°47'0 0.0
2018-Jun-20 16:00N 01°15' E 103°47'0 0.0
2018-Jun-20 15:25N 01°15' E 103°47'0 0.0
2018-Jun-20 15:00N 01°15' E 103°47'0 0.0
2018-Jun-20 14:27N 01°15' E 103°47'0 0.0
2018-Jun-20 14:00N 01°15' E 103°47'0 0.0
2018-Jun-20 13:27N 01°15' E 103°47'0 0.1
2018-Jun-20 12:57N 01°15' E 103°47'0 0.1
2018-Jun-20 12:28N 01°15' E 103°47'0 0.0
2018-Jun-20 11:58N 01°15' E 103°47'0 0.0
2018-Jun-20 11:30N 01°15' E 103°47'0 0.0
2018-Jun-20 11:00N 01°15' E 103°47'0 0.0
2018-Jun-20 10:30N 01°15' E 103°47'0 0.0
2018-Jun-20 10:00N 01°15' E 103°47'0 0.0
2018-Jun-20 09:30N 01°15' E 103°47'0 0.0
2018-Jun-20 09:00N 01°15' E 103°47'0 0.0
2018-Jun-20 08:25N 01°15' E 103°47'0 0.0
2018-Jun-20 07:58N 01°15' E 103°47'0 0.0
2018-Jun-20 07:30N 01°15' E 103°47'0 0.0
2018-Jun-20 07:00N 01°15' E 103°47'0 0.0
2018-Jun-20 06:28N 01°15' E 103°47'0 0.0
2018-Jun-20 05:58N 01°15' E 103°47'0 0.0
2018-Jun-20 05:27N 01°15' E 103°47'0 0.0
2018-Jun-20 05:00N 01°15' E 103°47'0 0.0
2018-Jun-20 04:30N 01°15' E 103°47'0 0.0
2018-Jun-20 03:58N 01°15' E 103°47'0 0.0
2018-Jun-20 03:30N 01°15' E 103°47'0 0.4
2018-Jun-20 03:00N 01°15' E 103°47'2 3.3
2018-Jun-20 02:31N 01°14' E 103°48'4 7.9
2018-Jun-20 02:00N 01°13' E 103°52'3 6.1
2018-Jun-20 01:31N 01°14' E 103°54'1 1.8
2018-Jun-20 01:01N 01°14' E 103°55'3 5.2
2018-Jun-20 00:30N 01°15' E 103°57'3 4.9
2018-Jun-19 23:59N 01°15' E 103°60'2 4.9
2018-Jun-19 23:30N 01°15' E 104°02'3 5.3
2018-Jun-19 22:56N 01°16' E 104°05'510.5
2018-Jun-19 22:30N 01°16' E 104°10'713.0
2018-Jun-19 21:59N 01°18' E 104°17'612.2
2018-Jun-19 21:30N 01°21' E 104°22'713.1
2018-Jun-19 20:57N 01°25' E 104°28'713.3
2018-Jun-19 20:26N 01°25' E 104°34'712.9
2018-Jun-19 19:54N 01°21' E 104°40'614.0
2018-Jun-19 19:28N 01°17' E 104°44'916.3
2018-Jun-19 18:56N 01°10' E 104°50'  
Track history (hours):
 
Tides and Currents Weather Stations Pressure Air Temp Water Temp Dewpoint Dewpoint Depression Visibility Wind Speed Wind Dir Waves Ship Positions

CMA CGM Corneille

Last reported at 2018-Jun-21 09:18 UTC. Time now 2018-Jun-22 18:59 UTC.
Position N 01°20' E 103°17'.

Length 299 m; draft 12.4 m.

Type: Ship (hazmat cat A). MMSI: 636017425.

Date/timePositionNaut miles runAvg speedWind from/ knotsBaromVisibWave heightAir tempDewpointWater temp
2018-Jun-21 09:18N 01°20' E 103°17'718.6
2018-Jun-21 08:55N 01°16' E 103°23'818.5
2018-Jun-21 08:30N 01°13' E 103°30'714.8
2018-Jun-21 08:01N 01°12' E 103°37'4 7.7
2018-Jun-21 07:31N 01°13' E 103°41'510.7
2018-Jun-21 07:00N 01°16' E 103°46'1 2.7
2018-Jun-21 06:30N 01°15' E 103°47'0 0.0
2018-Jun-21 05:58N 01°15' E 103°47'0 0.0
2018-Jun-21 05:30N 01°15' E 103°47'0 0.0
2018-Jun-21 04:58N 01°15' E 103°47'0 0.0
2018-Jun-21 04:28N 01°15' E 103°47'0 0.0
2018-Jun-21 03:55N 01°15' E 103°47'0 0.0
2018-Jun-21 03:30N 01°15' E 103°47'0 0.0
2018-Jun-21 03:00N 01°15' E 103°47'0 0.0
2018-Jun-21 02:28N 01°15' E 103°47'0 0.0
2018-Jun-21 01:58N 01°15' E 103°47'0 0.0
2018-Jun-21 01:30N 01°15' E 103°47'0 0.0
2018-Jun-21 00:57N 01°15' E 103°47'0 0.0
2018-Jun-21 00:30N 01°15' E 103°47'0 0.0
2018-Jun-20 23:55N 01°15' E 103°47'0 0.0
2018-Jun-20 23:30N 01°15' E 103°47'0 0.0
2018-Jun-20 22:59N 01°15' E 103°47'0 0.0
2018-Jun-20 22:29N 01°15' E 103°47'0 0.0
2018-Jun-20 22:00N 01°15' E 103°47'0 0.0
2018-Jun-20 21:30N 01°15' E 103°47'0 0.0
2018-Jun-20 20:58N 01°15' E 103°47'0 0.0
2018-Jun-20 20:30N 01°15' E 103°47'0 0.0
2018-Jun-20 20:00N 01°15' E 103°47'0 0.0
2018-Jun-20 19:28N 01°15' E 103°47'0 0.0
2018-Jun-20 18:57N 01°15' E 103°47'0 0.0
2018-Jun-20 18:30N 01°15' E 103°47'0 0.0
2018-Jun-20 17:58N 01°15' E 103°47'0 0.0
2018-Jun-20 17:30N 01°15' E 103°47'0 0.0
2018-Jun-20 17:00N 01°15' E 103°47'0 0.0
2018-Jun-20 16:30N 01°15' E 103°47'0 0.0
2018-Jun-20 16:00N 01°15' E 103°47'0 0.0
2018-Jun-20 15:25N 01°15' E 103°47'0 0.0
2018-Jun-20 15:00N 01°15' E 103°47'0 0.0
2018-Jun-20 14:27N 01°15' E 103°47'0 0.0
2018-Jun-20 14:00N 01°15' E 103°47'0 0.0
2018-Jun-20 13:27N 01°15' E 103°47'0 0.1
2018-Jun-20 12:57N 01°15' E 103°47'0 0.1
2018-Jun-20 12:28N 01°15' E 103°47'0 0.0
2018-Jun-20 11:58N 01°15' E 103°47'0 0.0
2018-Jun-20 11:30N 01°15' E 103°47'0 0.0
2018-Jun-20 11:00N 01°15' E 103°47'0 0.0
2018-Jun-20 10:30N 01°15' E 103°47'0 0.0
2018-Jun-20 10:00N 01°15' E 103°47'0 0.0
2018-Jun-20 09:30N 01°15' E 103°47'0 0.0
2018-Jun-20 09:00N 01°15' E 103°47'0 0.0
2018-Jun-20 08:25N 01°15' E 103°47'0 0.0
2018-Jun-20 07:58N 01°15' E 103°47'0 0.0
2018-Jun-20 07:30N 01°15' E 103°47'0 0.0
2018-Jun-20 07:00N 01°15' E 103°47'0 0.0
2018-Jun-20 06:28N 01°15' E 103°47'0 0.0
2018-Jun-20 05:58N 01°15' E 103°47'0 0.0
2018-Jun-20 05:27N 01°15' E 103°47'0 0.0
2018-Jun-20 05:00N 01°15' E 103°47'0 0.0
2018-Jun-20 04:30N 01°15' E 103°47'0 0.0
2018-Jun-20 03:58N 01°15' E 103°47'0 0.0
2018-Jun-20 03:30N 01°15' E 103°47'0 0.4
2018-Jun-20 03:00N 01°15' E 103°47'2 3.3
2018-Jun-20 02:31N 01°14' E 103°48'4 7.9
2018-Jun-20 02:00N 01°13' E 103°52'3 6.1
2018-Jun-20 01:31N 01°14' E 103°54'1 1.8
2018-Jun-20 01:01N 01°14' E 103°55'3 5.2
2018-Jun-20 00:30N 01°15' E 103°57'3 4.9
2018-Jun-19 23:59N 01°15' E 103°60'2 4.9
2018-Jun-19 23:30N 01°15' E 104°02'3 5.3
2018-Jun-19 22:56N 01°16' E 104°05'510.5
2018-Jun-19 22:30N 01°16' E 104°10'713.0
2018-Jun-19 21:59N 01°18' E 104°17'612.2
2018-Jun-19 21:30N 01°21' E 104°22'713.1
2018-Jun-19 20:57N 01°25' E 104°28'713.3
2018-Jun-19 20:26N 01°25' E 104°34'712.9
2018-Jun-19 19:54N 01°21' E 104°40'614.0
2018-Jun-19 19:28N 01°17' E 104°44'916.3
2018-Jun-19 18:56N 01°10' E 104°50'  

Dump ship's entire track history